Vremea acum in Pecica - Romania

Vrei sa afli care e starea vremii acum in Timis - Romania? Dorim sa iti furnizam starea vremii pentru Timis - Romania. Starea vremii Timis - Romania pentru astazi.

Vremea acum in Pecica

Temperatura: 27 °C

Se simte ca: 28.2 °C
Innorat: 37 %
Precipitatii: 70 %
Presiune atmosferica: 1012 hPa
Umiditate: 58%
Vizibilitate: 10 km
Vantul bate din S cu 13 km/h

Evolutia vremii in Pecica pe ore

Ora: 19:00
Ploi pe porţiuni în apropiere
Temperatura: 28.9°C
Sansa de precipitatii: 70%
Ora Descriere Temp Se simte Precipitatii Umiditate Vant
00:00Parțial noros25°28.1°0%70%SE 7.2 KM/H
01:00Parțial noros23.1°26.3°0%70%SE 6.8 KM/H
02:00Parțial noros21.1°21.1°0%71%SE 6.5 KM/H
03:00Parțial noros20.7°20.7°0%72%SE 6.5 KM/H
04:00Parțial noros20.4°20.4°0%74%SE 6.8 KM/H
05:00Parțial noros20°20°0%76%ESE 6.8 KM/H
06:00Parțial noros21.6°21.6°0%74%ESE 6.1 KM/H
07:00Parțial noros23.2°24.3°0%72%ESE 5.8 KM/H
08:00Parțial noros24.8°26.4°0%70%ESE 5 KM/H
09:00Parțial noros26.3°28.2°0%67%ENE 4.7 KM/H
10:00Parțial noros27.7°30.1°0%64%NE 4.7 KM/H
11:00Parțial noros29.2°31.9°0%62%N 4.3 KM/H
12:00Parțial noros29.6°32.3°0%59%N 5.8 KM/H
13:00Parțial noros30.1°32.7°0%57%N 7.6 KM/H
14:00Parțial noros30.5°33.1°0%55%N 9 KM/H
15:00Ploi pe porţiuni în apropiere30.4°33.2°25%57%ESE 10.4 KM/H
16:00Parțial noros30.3°33.4°50%58%SW 12.2 KM/H
17:00Ploi pe porţiuni în apropiere30.2°33.5°75%60%NNW 13.7 KM/H
18:00Ploaie torențială de scurtă durată29.5°33.1°72%67%W 13.7 KM/H
19:00Ploi pe porţiuni în apropiere28.9°32.6°70%74%S 13.3 KM/H
20:00Ploaie torențială de scurtă durată28.2°32.2°67%81%ESE 13.3 KM/H
21:00Ploi de scurtă durată moderate sau în cantităţi însemnate27.2°30.9°71%81%SE 11.2 KM/H
22:00Ploaie torențială de scurtă durată26.2°29.5°74%82%SSE 9 KM/H
23:00Ploi de scurtă durată moderate sau în cantităţi însemnate25.2°28.2°78%83%S 6.8 KM/H